Time;durP1;ratioP1;P1;durP2;ratioP2;P2;SDS_P1;SDS_P2;PMS_P1;PMS_P2;Temp;Humidity;BMP_temperature;BMP_pressure;BME280_temperature;BME280_humidity;BME280_pressure;Samples;Min_cycle;Max_cycle;Signal;HPM_P1;HPM_P2
2023/09/10 00:01:03;;;;;;;8.48;6.43;;;;;;;;;;5033510;28;20436;-58
2023/09/10 00:03:28;;;;;;;11.55;7.30;;;;;;;;;;5022002;28;20417;-58
2023/09/10 00:05:54;;;;;;;12.15;7.43;;;;;;;;;;5025233;28;20418;-58
2023/09/10 00:08:19;;;;;;;9.83;7.13;;;;;;;;;;5023038;28;20414;-58
2023/09/10 00:10:45;;;;;;;8.50;6.70;;;;;;;;;;5025606;28;20896;-58
2023/09/10 00:13:10;;;;;;;8.63;6.70;;;;;;;;;;5026465;28;20496;-58
2023/09/10 00:15:36;;;;;;;9.63;6.90;;;;;;;;;;5026231;28;20424;-58
2023/09/10 00:18:01;;;;;;;9.23;7.30;;;;;;;;;;5037274;28;20409;-58
2023/09/10 00:20:27;;;;;;;9.45;7.00;;;;;;;;;;5034883;28;20407;-58
2023/09/10 00:22:52;;;;;;;10.05;6.90;;;;;;;;;;5031182;28;20473;-58
2023/09/10 00:25:17;;;;;;;10.00;7.00;;;;;;;;;;5023392;28;20506;-58
2023/09/10 00:27:42;;;;;;;10.73;7.47;;;;;;;;;;5026520;28;20490;-58
2023/09/10 00:30:08;;;;;;;9.87;7.37;;;;;;;;;;5024304;28;20770;-58
2023/09/10 00:32:34;;;;;;;10.60;7.80;;;;;;;;;;5021833;28;20416;-58
2023/09/10 00:34:59;;;;;;;10.30;7.60;;;;;;;;;;5025900;28;20886;-58
2023/09/10 00:37:24;;;;;;;9.63;7.13;;;;;;;;;;5025978;28;20413;-58
2023/09/10 00:39:50;;;;;;;10.70;7.67;;;;;;;;;;5020509;28;20407;-58
2023/09/10 00:42:15;;;;;;;9.43;7.43;;;;;;;;;;5027281;28;20418;-58
2023/09/10 00:44:41;;;;;;;9.33;8.23;;;;;;;;;;5037282;28;20533;-57
2023/09/10 00:47:06;;;;;;;10.43;8.30;;;;;;;;;;5032946;28;20467;-58
2023/09/10 00:49:31;;;;;;;10.97;8.57;;;;;;;;;;5022455;28;20936;-58
2023/09/10 00:51:58;;;;;;;9.50;8.30;;;;;;;;;;5032671;28;20410;-58
2023/09/10 00:54:23;;;;;;;10.85;8.40;;;;;;;;;;5035140;28;20392;-58
2023/09/10 00:56:49;;;;;;;10.33;7.87;;;;;;;;;;5028362;28;20407;-58
2023/09/10 00:59:14;;;;;;;11.05;8.85;;;;;;;;;;5041786;28;20403;-58
2023/09/10 01:01:39;;;;;;;11.17;8.53;;;;;;;;;;5035301;28;20421;-58
2023/09/10 01:04:05;;;;;;;9.98;8.07;;;;;;;;;;5029245;28;20810;-58
2023/09/10 01:06:30;;;;;;;10.80;8.32;;;;;;;;;;5030260;28;20557;-58
2023/09/10 01:08:55;;;;;;;12.10;8.30;;;;;;;;;;5022848;28;20415;-58
2023/09/10 01:11:24;;;;;;;9.40;8.07;;;;;;;;;;5025029;28;20555;-58
2023/09/10 01:14:01;;;;;;;10.30;7.45;;;;;;;;;;5022365;28;20410;-58
2023/09/10 01:16:30;;;;;;;11.95;8.18;;;;;;;;;;5019964;28;20882;-58
2023/09/10 01:18:58;;;;;;;10.40;8.02;;;;;;;;;;5024985;28;20472;-58
2023/09/10 01:21:45;;;;;;;10.73;8.80;;;;;;;;;;5022439;28;20410;-57
2023/09/10 01:24:13;;;;;;;10.52;8.63;;;;;;;;;;5022579;28;20461;-58
2023/09/10 01:26:39;;;;;;;10.55;8.68;;;;;;;;;;5020413;28;20408;-58
2023/09/10 01:29:05;;;;;;;10.63;8.40;;;;;;;;;;5024073;28;20870;-58
2023/09/10 01:31:31;;;;;;;11.07;9.47;;;;;;;;;;5025333;28;20949;-58
2023/09/10 01:33:56;;;;;;;10.32;9.00;;;;;;;;;;5020447;28;20931;-58
2023/09/10 01:36:27;;;;;;;10.63;8.98;;;;;;;;;;5020401;28;20457;-58
2023/09/10 01:38:56;;;;;;;10.93;8.70;;;;;;;;;;5024390;28;20427;-58
2023/09/10 01:41:21;;;;;;;10.13;8.80;;;;;;;;;;5021608;28;20467;-58
2023/09/10 01:43:46;;;;;;;9.90;8.90;;;;;;;;;;5019064;28;20444;-58
2023/09/10 01:46:12;;;;;;;12.30;8.77;;;;;;;;;;5020394;28;20468;-58
2023/09/10 01:48:37;;;;;;;10.87;8.67;;;;;;;;;;5036103;28;20485;-58
2023/09/10 01:51:02;;;;;;;10.43;9.30;;;;;;;;;;5030075;28;20824;-58
2023/09/10 01:53:28;;;;;;;11.00;9.50;;;;;;;;;;5032322;28;20411;-57
2023/09/10 01:55:53;;;;;;;11.40;9.47;;;;;;;;;;5032419;28;20435;-58
2023/09/10 01:58:18;;;;;;;11.47;9.30;;;;;;;;;;5032400;28;20431;-58
2023/09/10 02:00:45;;;;;;;12.53;9.17;;;;;;;;;;5033515;28;20405;-58
2023/09/10 02:03:10;;;;;;;10.63;9.07;;;;;;;;;;5031819;28;20421;-58
2023/09/10 02:05:35;;;;;;;11.73;9.23;;;;;;;;;;5024123;28;20391;-58
2023/09/10 02:08:01;;;;;;;12.40;9.87;;;;;;;;;;5019424;28;20415;-59
2023/09/10 02:10:27;;;;;;;11.73;9.70;;;;;;;;;;5023943;28;20400;-58
2023/09/10 02:12:52;;;;;;;10.43;9.33;;;;;;;;;;5023871;28;20822;-58
2023/09/10 02:15:18;;;;;;;11.43;9.63;;;;;;;;;;5020178;28;20506;-58
2023/09/10 02:17:43;;;;;;;10.13;8.83;;;;;;;;;;5022372;28;20424;-58
2023/09/10 02:20:09;;;;;;;13.43;11.07;;;;;;;;;;5024058;28;20411;-57
2023/09/10 02:22:37;;;;;;;12.57;9.18;;;;;;;;;;5021895;28;20403;-58
2023/09/10 02:25:03;;;;;;;10.70;9.45;;;;;;;;;;5036163;28;20412;-58
2023/09/10 02:27:29;;;;;;;10.15;9.05;;;;;;;;;;5043798;28;20402;-58
2023/09/10 02:29:54;;;;;;;10.77;9.37;;;;;;;;;;5044212;28;20415;-58
2023/09/10 02:32:19;;;;;;;10.93;9.10;;;;;;;;;;5037707;28;20394;-58
2023/09/10 02:34:45;;;;;;;10.80;9.30;;;;;;;;;;5043674;28;20421;-58
2023/09/10 02:37:10;;;;;;;10.00;8.87;;;;;;;;;;5043712;28;20738;-58
2023/09/10 02:39:36;;;;;;;12.48;9.10;;;;;;;;;;5031217;28;20405;-58
2023/09/10 02:42:01;;;;;;;11.17;9.37;;;;;;;;;;5032824;28;20437;-58
2023/09/10 02:44:26;;;;;;;11.50;8.93;;;;;;;;;;5015339;28;20514;-58
2023/09/10 02:46:52;;;;;;;9.83;8.53;;;;;;;;;;5030815;28;20434;-58
2023/09/10 02:49:17;;;;;;;10.87;8.90;;;;;;;;;;5029917;28;20453;-58
2023/09/10 02:51:43;;;;;;;9.50;8.10;;;;;;;;;;5035256;28;20444;-58
2023/09/10 02:54:08;;;;;;;11.50;8.90;;;;;;;;;;5033717;28;20409;-58
2023/09/10 02:56:33;;;;;;;11.63;8.57;;;;;;;;;;5027217;28;20435;-58
2023/09/10 02:58:58;;;;;;;11.30;8.63;;;;;;;;;;5030933;28;20429;-58
2023/09/10 03:01:24;;;;;;;12.13;9.50;;;;;;;;;;5033645;28;20762;-58
2023/09/10 03:03:49;;;;;;;11.07;9.13;;;;;;;;;;5025083;28;20403;-58
2023/09/10 03:06:15;;;;;;;13.13;9.38;;;;;;;;;;5020017;28;20420;-58
2023/09/10 03:08:42;;;;;;;12.38;9.80;;;;;;;;;;5022977;28;20478;-58
2023/09/10 03:11:08;;;;;;;10.20;8.82;;;;;;;;;;5022116;28;20411;-58
2023/09/10 03:13:33;;;;;;;10.57;8.18;;;;;;;;;;5017347;28;20409;-58
2023/09/10 03:15:58;;;;;;;11.47;8.63;;;;;;;;;;5023147;28;20417;-58
2023/09/10 03:18:23;;;;;;;10.20;8.50;;;;;;;;;;5022943;28;20395;-58
2023/09/10 03:20:49;;;;;;;11.23;10.03;;;;;;;;;;5019096;28;20523;-58
2023/09/10 03:23:14;;;;;;;10.83;9.73;;;;;;;;;;5021808;28;20420;-58
2023/09/10 03:25:39;;;;;;;12.40;10.43;;;;;;;;;;5023331;28;20434;-58
2023/09/10 03:28:05;;;;;;;13.87;11.57;;;;;;;;;;5020395;28;20411;-58
2023/09/10 03:30:30;;;;;;;13.20;10.77;;;;;;;;;;5028190;28;20407;-58
2023/09/10 03:32:56;;;;;;;12.00;9.87;;;;;;;;;;5030971;28;20413;-58
2023/09/10 03:35:21;;;;;;;11.90;9.20;;;;;;;;;;5033297;28;20396;-58
2023/09/10 03:37:46;;;;;;;10.50;8.77;;;;;;;;;;5029626;28;20420;-58
2023/09/10 03:40:11;;;;;;;10.57;9.03;;;;;;;;;;5032637;28;20421;-58
2023/09/10 03:42:37;;;;;;;9.70;8.40;;;;;;;;;;5030933;28;20414;-58
2023/09/10 03:45:02;;;;;;;11.37;9.23;;;;;;;;;;5026779;28;20400;-58
2023/09/10 03:47:29;;;;;;;10.73;9.30;;;;;;;;;;5033200;28;20800;-58
2023/09/10 03:49:54;;;;;;;11.67;9.67;;;;;;;;;;5026687;28;20423;-58
2023/09/10 03:52:20;;;;;;;11.83;9.47;;;;;;;;;;5021410;28;20469;-58
2023/09/10 03:54:45;;;;;;;10.98;9.23;;;;;;;;;;5017528;28;20430;-58
2023/09/10 03:57:10;;;;;;;11.43;9.60;;;;;;;;;;5022328;28;20469;-58
2023/09/10 03:59:35;;;;;;;12.30;10.70;;;;;;;;;;5022930;28;20407;-58
2023/09/10 04:02:01;;;;;;;13.47;10.43;;;;;;;;;;5017017;28;20470;-59
2023/09/10 04:04:26;;;;;;;11.90;10.60;;;;;;;;;;5017066;28;20438;-58
2023/09/10 04:06:51;;;;;;;13.70;11.07;;;;;;;;;;5023263;28;20763;-58
2023/09/10 04:09:18;;;;;;;13.45;11.45;;;;;;;;;;5018474;28;22498;-58
2023/09/10 04:11:44;;;;;;;12.03;10.70;;;;;;;;;;5020583;28;20502;-58
2023/09/10 04:14:09;;;;;;;13.03;11.60;;;;;;;;;;5022396;28;20410;-58
2023/09/10 04:16:34;;;;;;;13.37;10.53;;;;;;;;;;5021444;28;20411;-58
2023/09/10 04:18:59;;;;;;;12.00;10.13;;;;;;;;;;5018649;28;20933;-58
2023/09/10 04:21:25;;;;;;;12.20;10.47;;;;;;;;;;5022253;28;20408;-58
2023/09/10 04:23:50;;;;;;;12.30;11.10;;;;;;;;;;5021622;28;20549;-58
2023/09/10 04:26:15;;;;;;;13.37;10.93;;;;;;;;;;5028837;28;20416;-58
2023/09/10 04:28:41;;;;;;;13.37;11.10;;;;;;;;;;5033860;28;20845;-58
2023/09/10 04:31:10;;;;;;;13.23;11.93;;;;;;;;;;5034174;28;20406;-58
2023/09/10 04:33:36;;;;;;;14.90;12.02;;;;;;;;;;5036272;28;20397;-58
2023/09/10 04:36:01;;;;;;;13.50;12.20;;;;;;;;;;5034789;28;20398;-59
2023/09/10 04:38:26;;;;;;;13.07;11.33;;;;;;;;;;5033391;28;20596;-58
2023/09/10 04:40:52;;;;;;;13.13;10.93;;;;;;;;;;5034671;28;20457;-58
2023/09/10 04:43:17;;;;;;;13.60;11.20;;;;;;;;;;5030529;28;20428;-58
2023/09/10 04:45:42;;;;;;;13.10;11.80;;;;;;;;;;5022639;28;20739;-58
2023/09/10 04:48:07;;;;;;;14.30;12.80;;;;;;;;;;5026060;28;20482;-58
2023/09/10 04:50:33;;;;;;;13.87;12.47;;;;;;;;;;5022895;28;20813;-58
2023/09/10 04:52:59;;;;;;;15.43;13.90;;;;;;;;;;5040058;28;20488;-58
2023/09/10 04:55:25;;;;;;;16.42;14.57;;;;;;;;;;5045050;28;20403;-58
2023/09/10 04:57:50;;;;;;;15.63;13.90;;;;;;;;;;5044340;28;20982;-58
2023/09/10 05:00:15;;;;;;;15.33;13.00;;;;;;;;;;5038979;28;20930;-58
2023/09/10 05:02:40;;;;;;;13.77;12.23;;;;;;;;;;5033664;28;20422;-58
2023/09/10 05:05:06;;;;;;;14.60;13.10;;;;;;;;;;5032975;28;20541;-58
2023/09/10 05:07:31;;;;;;;15.67;14.07;;;;;;;;;;5020954;28;20407;-58
2023/09/10 05:09:57;;;;;;;16.70;15.03;;;;;;;;;;5025864;28;20413;-58
2023/09/10 05:12:22;;;;;;;15.50;13.90;;;;;;;;;;5024921;28;20872;-58
2023/09/10 05:14:47;;;;;;;16.77;14.97;;;;;;;;;;5022225;28;20489;-58
2023/09/10 05:17:12;;;;;;;15.60;14.00;;;;;;;;;;5023148;28;20409;-58
2023/09/10 05:19:38;;;;;;;17.20;15.07;;;;;;;;;;5025080;28;20757;-58
2023/09/10 05:22:03;;;;;;;15.93;14.00;;;;;;;;;;5023877;28;20426;-58
2023/09/10 05:24:28;;;;;;;16.30;14.63;;;;;;;;;;5021570;28;20422;-58
2023/09/10 05:26:54;;;;;;;15.10;13.50;;;;;;;;;;5025323;28;20411;-58
2023/09/10 05:29:19;;;;;;;14.70;13.13;;;;;;;;;;5033105;28;20442;-58
2023/09/10 05:31:44;;;;;;;15.43;13.17;;;;;;;;;;5028766;28;20399;-58
2023/09/10 05:34:09;;;;;;;13.87;12.37;;;;;;;;;;5033356;28;20410;-58
2023/09/10 05:36:35;;;;;;;13.90;12.40;;;;;;;;;;5036795;28;20428;-58
2023/09/10 05:39:00;;;;;;;17.33;12.43;;;;;;;;;;5025654;28;20894;-58
2023/09/10 05:41:26;;;;;;;14.20;12.63;;;;;;;;;;5030309;28;20391;-58
2023/09/10 05:43:51;;;;;;;14.27;12.60;;;;;;;;;;5031077;28;20485;-58
2023/09/10 05:46:16;;;;;;;13.33;11.93;;;;;;;;;;5033485;28;20973;-58
2023/09/10 05:48:42;;;;;;;13.95;11.23;;;;;;;;;;5031881;28;20410;-58
2023/09/10 05:51:07;;;;;;;13.57;11.30;;;;;;;;;;5035048;28;20453;-58
2023/09/10 05:53:33;;;;;;;12.80;11.23;;;;;;;;;;5033101;28;20407;-58
2023/09/10 05:55:58;;;;;;;13.83;10.97;;;;;;;;;;5027307;28;20804;-58
2023/09/10 05:58:24;;;;;;;12.37;11.00;;;;;;;;;;5025353;28;20413;-58
2023/09/10 06:00:51;;;;;;;12.98;11.00;;;;;;;;;;5036523;28;20447;-58
2023/09/10 06:03:17;;;;;;;11.05;9.82;;;;;;;;;;5029739;28;20409;-58
2023/09/10 06:05:42;;;;;;;11.07;9.87;;;;;;;;;;5030182;28;20441;-58
2023/09/10 06:08:07;;;;;;;12.17;10.10;;;;;;;;;;5023031;28;20436;-58
2023/09/10 06:10:33;;;;;;;12.17;10.83;;;;;;;;;;5032179;28;20395;-58
2023/09/10 06:12:58;;;;;;;13.17;11.73;;;;;;;;;;5028160;28;20403;-58
2023/09/10 06:15:23;;;;;;;14.43;12.00;;;;;;;;;;5034690;28;20482;-58
2023/09/10 06:17:48;;;;;;;18.50;12.17;;;;;;;;;;5029487;28;20569;-58
2023/09/10 06:20:14;;;;;;;14.90;12.90;;;;;;;;;;5020377;28;20417;-59
2023/09/10 06:22:39;;;;;;;13.27;11.90;;;;;;;;;;5022393;28;20418;-58
2023/09/10 06:25:05;;;;;;;12.57;11.27;;;;;;;;;;5023793;28;20831;-58
2023/09/10 06:27:30;;;;;;;20.03;18.13;;;;;;;;;;5022921;28;20399;-58
2023/09/10 06:29:55;;;;;;;18.30;15.33;;;;;;;;;;5027802;28;20915;-58
2023/09/10 06:32:21;;;;;;;21.30;19.07;;;;;;;;;;5032551;28;20402;-58
2023/09/10 06:34:46;;;;;;;20.90;18.90;;;;;;;;;;5032484;28;20415;-58
2023/09/10 06:37:11;;;;;;;21.10;19.00;;;;;;;;;;5027468;28;20411;-59
2023/09/10 06:39:38;;;;;;;20.83;18.73;;;;;;;;;;5035721;28;20494;-58
2023/09/10 06:42:05;;;;;;;20.85;18.75;;;;;;;;;;5034494;28;20455;-58
2023/09/10 06:44:30;;;;;;;22.77;20.58;;;;;;;;;;5025949;28;20513;-58
2023/09/10 06:46:55;;;;;;;22.05;19.88;;;;;;;;;;5011041;28;20488;-58
2023/09/10 06:49:20;;;;;;;21.67;19.43;;;;;;;;;;5023392;28;20383;-58
2023/09/10 06:51:46;;;;;;;22.63;20.33;;;;;;;;;;5032071;28;20490;-58
2023/09/10 06:54:11;;;;;;;21.70;19.50;;;;;;;;;;5029580;28;20413;-58
2023/09/10 06:56:36;;;;;;;22.57;20.43;;;;;;;;;;5027932;28;20439;-58
2023/09/10 06:59:02;;;;;;;21.87;19.60;;;;;;;;;;5021847;28;20423;-59
2023/09/10 07:01:27;;;;;;;21.77;19.57;;;;;;;;;;5021520;28;20476;-58
2023/09/10 07:03:52;;;;;;;22.77;20.57;;;;;;;;;;5019822;28;20405;-58
2023/09/10 07:06:18;;;;;;;21.00;18.90;;;;;;;;;;5022541;28;20415;-58
2023/09/10 07:08:43;;;;;;;20.50;18.40;;;;;;;;;;5023746;28;20905;-58
2023/09/10 07:11:08;;;;;;;21.60;19.43;;;;;;;;;;5017978;28;20438;-58
2023/09/10 07:13:36;;;;;;;20.40;18.37;;;;;;;;;;5022881;28;20894;-58
2023/09/10 07:16:02;;;;;;;20.08;18.17;;;;;;;;;;5022960;28;20419;-59
2023/09/10 07:18:32;;;;;;;21.30;19.30;;;;;;;;;;5028327;28;20457;-58
2023/09/10 07:20:58;;;;;;;20.75;18.65;;;;;;;;;;5028446;28;20906;-58
2023/09/10 07:23:23;;;;;;;21.57;19.33;;;;;;;;;;5039466;28;20392;-58
2023/09/10 07:25:48;;;;;;;21.73;19.53;;;;;;;;;;5037857;28;20418;-58
2023/09/10 07:28:13;;;;;;;21.07;18.97;;;;;;;;;;5031515;28;20496;-58
2023/09/10 07:30:39;;;;;;;22.90;20.57;;;;;;;;;;5029107;28;20954;-58
2023/09/10 07:33:04;;;;;;;20.50;18.43;;;;;;;;;;5030878;28;20418;-58
2023/09/10 07:35:29;;;;;;;21.50;19.35;;;;;;;;;;5030069;28;20785;-58
2023/09/10 07:37:54;;;;;;;20.43;18.40;;;;;;;;;;5018923;28;20411;-58
2023/09/10 07:40:20;;;;;;;20.70;18.70;;;;;;;;;;5022057;28;20407;-58
2023/09/10 07:42:45;;;;;;;19.90;17.90;;;;;;;;;;5022295;28;20398;-58
2023/09/10 07:45:14;;;;;;;19.33;17.40;;;;;;;;;;5026216;28;20508;-58
2023/09/10 07:47:40;;;;;;;20.02;17.90;;;;;;;;;;5029422;28;20442;-58
2023/09/10 07:50:05;;;;;;;19.83;17.80;;;;;;;;;;5031229;28;20975;-59
2023/09/10 07:52:31;;;;;;;20.40;18.40;;;;;;;;;;5032361;28;20397;-58
2023/09/10 07:54:56;;;;;;;20.63;18.60;;;;;;;;;;5030939;28;20408;-58
2023/09/10 07:57:21;;;;;;;22.53;19.37;;;;;;;;;;5031251;28;20383;-58
2023/09/10 07:59:47;;;;;;;19.97;18.03;;;;;;;;;;5031478;28;20807;-58
2023/09/10 08:02:12;;;;;;;23.53;21.30;;;;;;;;;;5030281;28;20411;-58
2023/09/10 08:04:38;;;;;;;21.77;19.60;;;;;;;;;;5030396;28;20476;-58
2023/09/10 08:07:04;;;;;;;23.37;20.97;;;;;;;;;;5038111;28;20409;-59
2023/09/10 08:09:31;;;;;;;22.85;20.55;;;;;;;;;;5031455;28;20399;-58
2023/09/10 08:11:56;;;;;;;23.70;21.20;;;;;;;;;;5038585;28;20405;-58
2023/09/10 08:14:22;;;;;;;24.00;21.50;;;;;;;;;;5044875;28;20469;-58
2023/09/10 08:16:47;;;;;;;29.48;22.25;;;;;;;;;;5033081;28;20405;-58
2023/09/10 08:19:12;;;;;;;23.97;21.67;;;;;;;;;;5036939;28;20502;-59
2023/09/10 08:21:38;;;;;;;23.70;21.30;;;;;;;;;;5026834;28;20399;-58
2023/09/10 08:24:04;;;;;;;26.83;24.20;;;;;;;;;;5020494;28;20414;-59
2023/09/10 08:26:29;;;;;;;26.38;23.73;;;;;;;;;;5026115;28;20490;-58
2023/09/10 08:28:55;;;;;;;26.27;23.53;;;;;;;;;;5035010;28;20391;-58
2023/09/10 08:31:20;;;;;;;25.80;23.20;;;;;;;;;;5033056;28;20412;-58
2023/09/10 08:33:45;;;;;;;26.00;23.33;;;;;;;;;;5028900;28;20399;-58
2023/09/10 08:36:11;;;;;;;25.17;22.83;;;;;;;;;;5035402;28;20416;-59
2023/09/10 08:38:36;;;;;;;24.77;22.37;;;;;;;;;;5036347;28;20879;-58
2023/09/10 08:41:09;;;;;;;27.77;24.67;;;;;;;;;;5025948;28;20411;-58
2023/09/10 08:43:37;;;;;;;26.27;23.77;;;;;;;;;;5025417;28;20749;-58
2023/09/10 08:46:03;;;;;;;25.93;23.40;;;;;;;;;;5024267;28;20423;-59
2023/09/10 08:48:28;;;;;;;25.02;22.58;;;;;;;;;;5020952;28;20495;-58
2023/09/10 08:50:53;;;;;;;24.80;22.30;;;;;;;;;;5024623;28;20399;-58
2023/09/10 08:53:18;;;;;;;25.60;23.13;;;;;;;;;;5026131;28;20803;-58
2023/09/10 08:55:44;;;;;;;24.97;22.50;;;;;;;;;;5022555;28;20422;-58
2023/09/10 08:58:10;;;;;;;25.63;23.13;;;;;;;;;;5022234;28;20403;-59
2023/09/10 09:00:36;;;;;;;23.70;21.33;;;;;;;;;;5026241;28;20409;-59
2023/09/10 09:03:02;;;;;;;26.17;23.47;;;;;;;;;;5019509;28;20527;-59
2023/09/10 09:05:27;;;;;;;26.05;23.45;;;;;;;;;;5019534;28;20792;-58
2023/09/10 09:07:54;;;;;;;26.00;23.40;;;;;;;;;;5024409;28;20403;-58
2023/09/10 09:10:26;;;;;;;25.42;22.88;;;;;;;;;;5024729;28;20410;-58
2023/09/10 09:12:54;;;;;;;25.45;22.92;;;;;;;;;;5021002;28;20501;-58
2023/09/10 09:15:19;;;;;;;25.73;23.13;;;;;;;;;;5022880;28;20421;-58
2023/09/10 09:17:44;;;;;;;26.13;23.53;;;;;;;;;;5025683;28;20400;-59
2023/09/10 09:20:10;;;;;;;26.60;23.83;;;;;;;;;;5032618;28;20407;-58
2023/09/10 09:22:35;;;;;;;26.07;23.57;;;;;;;;;;5032795;28;20870;-59
2023/09/10 09:25:02;;;;;;;26.50;23.80;;;;;;;;;;5027371;28;20400;-60
2023/09/10 09:27:28;;;;;;;25.27;22.67;;;;;;;;;;5035876;28;20392;-59
2023/09/10 09:29:53;;;;;;;25.30;22.83;;;;;;;;;;5025946;28;20403;-58
2023/09/10 09:32:19;;;;;;;27.30;24.80;;;;;;;;;;5015152;28;20482;-58
2023/09/10 09:34:44;;;;;;;26.40;23.80;;;;;;;;;;4992712;28;20430;-58
2023/09/10 09:37:09;;;;;;;24.83;22.43;;;;;;;;;;4988885;28;20402;-59
2023/09/10 09:39:35;;;;;;;24.40;21.90;;;;;;;;;;4989424;28;20413;-58
2023/09/10 09:42:00;;;;;;;23.70;21.17;;;;;;;;;;4997064;28;20902;-58
2023/09/10 09:44:25;;;;;;;24.33;21.83;;;;;;;;;;5005234;28;20740;-59
2023/09/10 09:46:51;;;;;;;22.63;20.23;;;;;;;;;;5010238;28;20413;-58
2023/09/10 09:49:16;;;;;;;22.23;19.60;;;;;;;;;;5010586;28;20401;-58
2023/09/10 09:51:42;;;;;;;21.77;19.47;;;;;;;;;;4994378;28;20405;-58
2023/09/10 09:54:07;;;;;;;23.80;21.60;;;;;;;;;;5001283;28;20399;-59
2023/09/10 09:56:33;;;;;;;21.83;19.63;;;;;;;;;;4990589;28;20402;-58
2023/09/10 09:58:58;;;;;;;21.47;19.30;;;;;;;;;;4987277;28;20447;-58
2023/09/10 10:01:23;;;;;;;21.70;19.00;;;;;;;;;;4997769;28;20462;-58
2023/09/10 10:03:49;;;;;;;20.20;18.10;;;;;;;;;;4999209;28;20501;-59
2023/09/10 10:06:16;;;;;;;19.33;17.30;;;;;;;;;;5001445;28;20471;-59
2023/09/10 10:08:46;;;;;;;19.20;17.37;;;;;;;;;;5013182;28;20758;-59
2023/09/10 10:11:12;;;;;;;18.40;16.40;;;;;;;;;;5031857;28;20411;-58
2023/09/10 10:13:37;;;;;;;19.23;16.63;;;;;;;;;;5014723;28;20408;-59
2023/09/10 10:16:03;;;;;;;16.80;14.97;;;;;;;;;;5019426;28;20967;-58
2023/09/10 10:18:28;;;;;;;17.20;15.50;;;;;;;;;;5009303;28;20457;-59
2023/09/10 10:20:53;;;;;;;17.07;15.23;;;;;;;;;;4995865;28;20465;-58
2023/09/10 10:23:19;;;;;;;16.25;14.30;;;;;;;;;;4986251;28;20413;-59
2023/09/10 10:25:44;;;;;;;18.02;13.43;;;;;;;;;;4994758;28;20454;-58
2023/09/10 10:28:11;;;;;;;15.83;12.60;;;;;;;;;;4991951;28;20417;-59
2023/09/10 10:30:40;;;;;;;15.23;12.38;;;;;;;;;;4993202;28;20410;-58
2023/09/10 10:33:06;;;;;;;15.18;9.98;;;;;;;;;;5015787;28;20501;-59
2023/09/10 10:35:32;;;;;;;11.80;9.50;;;;;;;;;;5021058;28;20972;-58
2023/09/10 10:37:57;;;;;;;14.17;8.70;;;;;;;;;;5023192;28;20413;-58
2023/09/10 10:40:30;;;;;;;12.83;10.00;;;;;;;;;;5020566;28;20383;-58
2023/09/10 10:43:03;;;;;;;13.65;9.40;;;;;;;;;;5015637;28;20405;-58
2023/09/10 10:45:28;;;;;;;18.02;10.18;;;;;;;;;;5031547;28;20888;-59
2023/09/10 10:47:53;;;;;;;14.27;9.25;;;;;;;;;;5023060;28;20442;-58
2023/09/10 10:50:21;;;;;;;12.97;9.30;;;;;;;;;;5019251;28;20442;-58
2023/09/10 10:52:51;;;;;;;12.85;8.88;;;;;;;;;;5020760;28;20441;-59
2023/09/10 10:55:16;;;;;;;15.15;9.52;;;;;;;;;;5022692;28;20422;-58
2023/09/10 10:57:42;;;;;;;13.17;9.07;;;;;;;;;;5022513;28;20418;-58
2023/09/10 11:00:09;;;;;;;14.37;9.33;;;;;;;;;;5018825;28;20419;-59
2023/09/10 11:02:35;;;;;;;14.85;8.05;;;;;;;;;;5033948;28;20425;-59
2023/09/10 11:05:03;;;;;;;13.83;8.03;;;;;;;;;;5034005;28;20401;-60
2023/09/10 11:07:29;;;;;;;12.63;7.80;;;;;;;;;;5026941;28;20403;-58
2023/09/10 11:09:56;;;;;;;11.55;7.68;;;;;;;;;;5030777;28;20911;-59
2023/09/10 11:12:21;;;;;;;14.43;7.78;;;;;;;;;;5032947;28;20396;-59
2023/09/10 11:15:03;;;;;;;13.57;7.40;;;;;;;;;;5032425;28;20405;-59
2023/09/10 11:17:31;;;;;;;12.63;7.35;;;;;;;;;;5038211;28;20404;-58
2023/09/10 11:19:57;;;;;;;14.82;7.78;;;;;;;;;;5042629;28;20524;-58
2023/09/10 11:22:22;;;;;;;12.10;7.20;;;;;;;;;;5043011;28;20951;-58
2023/09/10 11:25:00;;;;;;;11.73;6.73;;;;;;;;;;5033215;28;20407;-59
2023/09/10 11:27:27;;;;;;;12.68;6.72;;;;;;;;;;5028344;28;20453;-58
2023/09/10 11:30:03;;;;;;;12.57;6.65;;;;;;;;;;5029761;28;20407;-59
2023/09/10 11:32:28;;;;;;;13.65;6.60;;;;;;;;;;5020506;28;20426;-59
2023/09/10 11:35:04;;;;;;;12.93;7.23;;;;;;;;;;5016822;28;20470;-58
2023/09/10 11:37:29;;;;;;;15.52;6.82;;;;;;;;;;5020635;28;21192;-58
2023/09/10 11:39:55;;;;;;;15.27;7.53;;;;;;;;;;5028832;28;20450;-59
2023/09/10 11:42:20;;;;;;;12.57;6.60;;;;;;;;;;5023043;28;20390;-58
2023/09/10 11:44:45;;;;;;;11.87;6.70;;;;;;;;;;5030723;28;20891;-58
2023/09/10 11:47:11;;;;;;;11.53;7.20;;;;;;;;;;5021838;28;20411;-59
2023/09/10 11:49:36;;;;;;;14.00;7.07;;;;;;;;;;5030335;28;20486;-58
2023/09/10 11:52:01;;;;;;;12.20;7.03;;;;;;;;;;5017546;28;20438;-60
2023/09/10 11:54:27;;;;;;;11.53;6.40;;;;;;;;;;5022075;28;20409;-58
2023/09/10 11:56:55;;;;;;;12.13;6.53;;;;;;;;;;5021727;28;20411;-58
2023/09/10 11:59:23;;;;;;;13.15;6.38;;;;;;;;;;5019730;28;20453;-58
2023/09/10 12:01:48;;;;;;;12.80;5.75;;;;;;;;;;5020244;28;20905;-58
2023/09/10 12:04:16;;;;;;;11.50;6.10;;;;;;;;;;5021467;28;20414;-59
2023/09/10 12:06:42;;;;;;;10.33;5.60;;;;;;;;;;5030160;28;20905;-59
2023/09/10 12:09:07;;;;;;;9.97;6.40;;;;;;;;;;5022860;28;20439;-59
2023/09/10 12:11:32;;;;;;;9.33;6.57;;;;;;;;;;5023556;28;20407;-58
2023/09/10 12:13:58;;;;;;;12.05;6.00;;;;;;;;;;5016929;28;20407;-59
2023/09/10 12:16:23;;;;;;;15.27;6.73;;;;;;;;;;5020766;28;20392;-58
2023/09/10 12:18:48;;;;;;;13.27;6.63;;;;;;;;;;5029601;28;20444;-59
2023/09/10 12:21:15;;;;;;;13.50;6.13;;;;;;;;;;5027615;28;20891;-59
2023/09/10 12:23:40;;;;;;;11.98;5.95;;;;;;;;;;5029849;28;20797;-58
2023/09/10 12:26:07;;;;;;;14.57;6.63;;;;;;;;;;5022348;28;20503;-59
2023/09/10 12:28:32;;;;;;;13.57;6.57;;;;;;;;;;5018409;28;20552;-58
2023/09/10 12:30:58;;;;;;;13.90;7.00;;;;;;;;;;5019562;28;20517;-59
2023/09/10 12:33:23;;;;;;;13.80;8.40;;;;;;;;;;5022210;28;20493;-58
2023/09/10 12:35:49;;;;;;;13.75;6.72;;;;;;;;;;5022323;28;20396;-58
2023/09/10 12:38:15;;;;;;;15.73;7.40;;;;;;;;;;5017176;28;20414;-59
2023/09/10 12:40:41;;;;;;;14.85;6.75;;;;;;;;;;5022716;28;20416;-58
2023/09/10 12:43:06;;;;;;;12.50;6.83;;;;;;;;;;5020943;28;20453;-59
2023/09/10 12:45:32;;;;;;;14.30;8.00;;;;;;;;;;5017908;28;20894;-58
2023/09/10 12:47:57;;;;;;;13.80;8.10;;;;;;;;;;5024075;28;20405;-59
2023/09/10 12:50:23;;;;;;;13.63;7.33;;;;;;;;;;5025275;28;20395;-59
2023/09/10 12:52:49;;;;;;;13.93;7.40;;;;;;;;;;5025096;28;20418;-58
2023/09/10 12:55:15;;;;;;;13.55;7.30;;;;;;;;;;5023374;28;20417;-58
2023/09/10 12:57:41;;;;;;;13.20;7.28;;;;;;;;;;5030045;28;20826;-58
2023/09/10 13:00:06;;;;;;;12.80;6.50;;;;;;;;;;5034789;28;20415;-58
2023/09/10 13:02:32;;;;;;;13.53;7.60;;;;;;;;;;5027236;28;20407;-59
2023/09/10 13:04:58;;;;;;;13.25;7.35;;;;;;;;;;5032814;28;20411;-58
2023/09/10 13:07:23;;;;;;;15.10;6.97;;;;;;;;;;5037067;28;20401;-59
2023/09/10 13:09:48;;;;;;;13.25;6.70;;;;;;;;;;5026904;28;20403;-59
2023/09/10 13:12:14;;;;;;;13.60;6.73;;;;;;;;;;5031941;28;20402;-59
2023/09/10 13:14:39;;;;;;;15.87;7.00;;;;;;;;;;5037333;28;20923;-58
2023/09/10 13:17:05;;;;;;;11.73;7.03;;;;;;;;;;5035245;28;20432;-59
2023/09/10 13:19:30;;;;;;;14.18;6.80;;;;;;;;;;5024321;28;20457;-58
2023/09/10 13:21:56;;;;;;;10.90;6.07;;;;;;;;;;5028626;28;20404;-58
2023/09/10 13:24:21;;;;;;;8.80;6.07;;;;;;;;;;5036294;28;20389;-59
2023/09/10 13:26:46;;;;;;;13.90;6.77;;;;;;;;;;5032224;28;20927;-59
2023/09/10 13:29:12;;;;;;;14.50;6.37;;;;;;;;;;5033775;28;20487;-59
2023/09/10 13:31:37;;;;;;;13.48;6.40;;;;;;;;;;5033455;28;20477;-58
2023/09/10 13:34:05;;;;;;;11.80;5.10;;;;;;;;;;5031439;28;20411;-58
2023/09/10 13:36:30;;;;;;;15.00;5.30;;;;;;;;;;5033593;28;20409;-59
2023/09/10 13:38:55;;;;;;;10.97;5.03;;;;;;;;;;5035978;28;20429;-59
2023/09/10 13:41:20;;;;;;;11.63;5.73;;;;;;;;;;5033841;28;20398;-58
2023/09/10 13:43:46;;;;;;;9.57;5.03;;;;;;;;;;5026955;28;20759;-59
2023/09/10 13:46:11;;;;;;;14.07;5.13;;;;;;;;;;5028160;28;20403;-59
2023/09/10 13:48:36;;;;;;;9.40;5.07;;;;;;;;;;5025389;28;20441;-58
2023/09/10 13:51:02;;;;;;;11.10;4.70;;;;;;;;;;5021410;28;20399;-59
2023/09/10 13:53:27;;;;;;;9.37;4.70;;;;;;;;;;5022550;28;20481;-59
2023/09/10 13:55:52;;;;;;;11.23;4.63;;;;;;;;;;5024962;28;20438;-59
2023/09/10 13:58:19;;;;;;;11.17;5.17;;;;;;;;;;5022013;28;20411;-59
2023/09/10 14:00:45;;;;;;;10.43;4.38;;;;;;;;;;5020535;28;21113;-59
2023/09/10 14:03:10;;;;;;;9.37;4.47;;;;;;;;;;5024251;28;20743;-58
2023/09/10 14:05:36;;;;;;;11.30;5.23;;;;;;;;;;5032804;28;20407;-58
2023/09/10 14:08:02;;;;;;;10.23;4.82;;;;;;;;;;5027088;28;20391;-59
2023/09/10 14:10:27;;;;;;;10.05;4.93;;;;;;;;;;5035933;28;20402;-59
2023/09/10 14:12:53;;;;;;;9.93;4.60;;;;;;;;;;5036415;28;20422;-58
2023/09/10 14:15:18;;;;;;;11.90;4.67;;;;;;;;;;5029514;28;20916;-58